Chadstone Weather > Observations for 03/08/21

Select Day:



Observations
Time Temp Hum DP Wind Gust Dir Rain >9am Press
C % C kph kph mm hPa
00:00 11.3 67 5.4 6.4 17.3 N 0.3 996.2
00:10 11.3 68 5.6 7.5 12.2 N 0.3 996.0
00:20 11.4 68 5.7 7.2 15.8 N 0.3 996.2
00:30 11.4 69 5.9 5.5 14.8 N 0.3 996.0
00:40 11.3 70 6.0 4.9 11.2 NNW 0.9 996.3
00:50 11.1 72 6.2 7.4 24.5 NNW 1.5 996.5
01:00 11.1 72 6.2 10.5 24.5 NW 2.1 996.6
01:10 10.9 74 6.5 3.6 8.6 NW 2.7 996.4
01:20 10.7 75 6.5 2.7 8.6 NNW 3.0 996.3
01:30 10.5 76 6.5 3.4 6.1 NNW 3.6 996.2
01:40 10.3 78 6.6 6.4 14.8 NNW 4.2 995.8
01:50 10.2 80 6.9 7.7 13.3 NW 4.5 995.8
02:00 10.1 81 7.0 6.6 15.8 NNW 4.8 995.7
02:10 10.0 82 7.1 7.4 12.2 N 5.1 995.7
02:20 9.9 84 7.3 5.2 9.7 NNW 5.1 995.6
02:30 9.9 84 7.3 4.1 9.7 N 5.4 995.5
02:40 9.9 85 7.5 4.5 8.6 N 5.7 995.4
02:50 9.7 85 7.3 3.6 8.6 NW 6.3 995.4
03:00 9.7 85 7.3 2.5 5.0 NNW 6.6 995.3
03:10 9.6 86 7.4 2.1 6.1 NW 7.2 995.2
03:20 9.6 86 7.4 1.6 3.6 N 7.5 995.3
03:30 9.6 87 7.5 2.0 6.1 N 7.8 995.3
03:40 9.5 87 7.4 2.5 6.1 N 7.8 995.3
03:50 9.5 87 7.4 2.8 7.2 N 8.1 995.0
04:00 9.5 88 7.6 3.7 7.2 NW 8.1 994.8
04:10 9.4 88 7.5 4.8 9.7 N 8.1 994.8
04:20 9.3 88 7.4 4.2 7.2 NNW 8.1 994.8
04:30 9.2 88 7.3 3.1 7.2 NNW 8.1 994.9
04:40 9.2 89 7.5 2.7 6.1 NNW 8.1 994.9
04:50 9.1 89 7.4 3.3 9.7 NNW 8.1 995.1
05:00 9.1 89 7.4 4.0 8.6 NNW 8.1 995.0
05:10 9.1 89 7.4 4.7 11.2 N 8.1 995.1
05:20 9.0 89 7.3 5.4 13.3 NNW 8.1 995.0
05:30 8.9 90 7.4 4.8 8.6 NNW 8.1 994.9
05:40 8.8 90 7.3 5.5 11.2 NNW 8.1 995.0
05:50 8.8 90 7.3 5.6 9.7 NNW 8.1 995.1
06:00 8.8 90 7.3 4.9 11.2 NNW 8.1 995.2
06:10 8.8 91 7.4 4.3 8.6 NNW 8.1 995.3
06:20 8.8 91 7.4 4.8 11.2 NNW 8.1 995.4
06:30 8.8 91 7.4 3.9 8.6 NNW 8.4 995.5
06:40 8.8 91 7.4 4.9 9.7 NNW 8.4 995.6
06:50 8.8 91 7.4 3.9 8.6 N 8.4 995.7
07:00 8.8 91 7.4 3.7 8.6 NNW 8.4 995.9
07:10 8.8 91 7.4 3.3 7.2 NNW 8.4 995.8
07:20 8.9 91 7.5 4.0 9.7 NNW 8.4 995.9
07:30 8.9 91 7.5 3.7 8.6 NNW 8.4 996.0
07:40 8.9 91 7.5 3.1 6.1 NW 8.4 996.1
07:50 8.9 91 7.5 2.5 6.1 NNW 8.4 996.3
08:00 8.9 92 7.7 2.4 6.1 N 8.4 996.4
08:10 9.0 91 7.6 2.0 6.1 N 8.4 996.2
08:20 9.0 91 7.6 2.1 6.1 NNW 8.4 996.4
08:30 9.1 91 7.7 2.2 7.2 NNW 8.4 996.4
08:40 9.3 91 7.9 0.9 7.2 NNW 8.4 996.5
08:50 9.5 91 8.1 0.1 5.0 NW 8.4 996.4
09:00 9.7 91 8.3 0.0 3.6 NW 0.0 996.5
09:10 9.7 91 8.3 0.0 3.6 WNW 0.0 996.5
09:20 10.1 90 8.5 0.0 2.5 NW 0.0 996.6
09:30 10.4 90 8.8 0.0 2.5 NNW 0.0 996.7
09:40 10.5 89 8.8 0.0 2.5 WNW 0.0 996.6
09:50 10.8 89 9.1 0.0 2.5 NW 0.0 996.6
10:00 11.2 87 9.1 0.0 6.1 NNW 0.0 996.6
10:10 11.7 85 9.3 0.2 7.2 NW 0.0 996.6
10:20 12.0 82 9.0 0.1 5.0 W 0.0 996.6
10:30 12.3 77 8.4 4.2 18.4 W 0.0 996.5
10:40 12.5 74 8.0 8.2 18.4 WNW 0.0 996.5
10:50 12.9 72 8.0 5.6 17.3 WNW 0.0 996.5
11:00 13.2 70 7.9 6.7 14.8 W 0.0 996.5
11:10 13.2 68 7.4 9.3 19.4 WNW 0.0 996.4
11:20 12.9 67 6.9 8.6 24.5 W 0.0 996.2
11:30 12.9 67 6.9 3.7 18.4 WSW 0.0 996.1
11:40 12.4 66 6.2 5.3 14.8 WNW 0.0 996.1
11:50 12.9 67 6.9 8.5 23.4 WNW 0.0 996.0
12:00 13.2 66 7.0 6.0 15.8 W 0.0 995.8
12:10 13.5 66 7.3 7.6 18.4 WSW 0.0 995.7
12:20 12.9 67 6.9 6.2 13.3 W 0.0 995.7
12:30 12.3 71 7.2 6.1 14.8 WSW 0.0 995.6
12:40 12.6 72 7.7 6.2 18.4 WNW 0.0 995.4
12:50 12.3 70 7.0 7.6 15.8 WSW 0.0 995.3
13:00 12.9 71 7.8 5.7 12.2 NW 0.0 995.2
13:10 13.7 67 7.7 7.7 20.9 NW 0.0 995.1
13:20 13.6 67 7.6 6.5 18.4 WSW 0.0 995.1
13:30 13.5 67 7.5 8.3 17.3 W 0.0 995.0
13:40 13.2 66 7.0 9.3 19.4 W 0.0 995.1
13:50 13.8 65 7.3 10.7 31.7 SW 0.0 995.2
14:00 14.0 63 7.1 8.7 19.4 WSW 0.0 995.2
14:10 14.3 62 7.1 7.7 22.0 WSW 0.0 995.1
14:20 14.0 61 6.6 9.7 24.5 WNW 0.0 995.0
14:30 13.8 62 6.6 8.7 18.4 W 0.3 995.0
14:40 14.2 62 7.0 8.7 25.6 WNW 0.3 995.1
14:50 13.8 61 6.4 6.5 19.4 WNW 0.3 995.1
15:00 13.6 61 6.2 7.0 17.3 W 0.3 995.2
15:10 13.6 62 6.5 6.9 27.0 SW 0.3 995.2
15:20 13.9 62 6.7 12.3 27.0 WSW 0.3 995.4
15:30 13.8 60 6.2 9.8 22.0 WNW 0.3 995.6
15:40 13.5 61 6.1 8.3 18.4 WSW 0.3 995.7
15:50 13.1 64 6.4 9.0 23.4 WNW 0.3 996.0
16:00 12.7 69 7.2 9.0 19.4 W 0.3 996.1
16:10 12.2 71 7.1 7.7 20.9 W 0.3 996.1
16:20 12.1 71 7.0 10.2 24.5 WSW 0.3 996.1
16:30 12.1 70 6.8 9.6 23.4 WSW 0.3 996.2
16:40 12.0 70 6.7 9.7 24.5 SW 0.3 996.3
16:50 11.8 71 6.7 12.6 24.5 W 0.3 996.5
17:00 11.7 71 6.6 12.3 25.6 W 0.3 996.7
17:10 11.4 70 6.1 8.8 22.0 W 0.3 997.0
17:20 11.4 70 6.1 7.8 18.4 SW 0.3 997.1
17:30 11.3 71 6.2 9.5 24.5 W 0.3 997.2
17:40 11.3 71 6.2 10.1 27.0 WSW 0.3 997.3
17:50 11.0 71 5.9 11.3 24.5 W 0.3 997.4
18:00 10.9 73 6.3 13.3 23.4 WNW 0.3 997.6
18:10 10.8 73 6.2 12.7 25.6 WNW 0.3 997.8
18:20 10.7 73 6.1 9.7 24.5 WNW 0.3 997.9
18:30 10.6 73 6.0 11.5 23.4 WNW 0.3 998.1
18:40 10.5 74 6.1 10.7 20.9 W 0.3 998.0
18:50 10.4 74 6.0 12.2 25.6 WNW 0.3 998.2
19:00 10.3 74 5.9 10.8 22.0 WNW 0.3 998.1
19:10 10.2 74 5.8 12.9 28.1 WNW 0.3 998.4
19:20 10.1 74 5.7 8.9 27.0 W 0.3 998.4
19:30 10.1 74 5.7 10.3 23.4 WNW 0.3 998.7
19:40 10.0 74 5.6 11.3 23.4 W 0.3 998.8
19:50 9.9 75 5.7 10.9 24.5 W 0.3 999.0
20:00 9.9 75 5.7 7.9 17.3 WNW 0.3 999.1
20:10 9.8 75 5.6 9.8 22.0 W 0.3 999.0
20:20 9.7 74 5.3 10.3 20.9 W 0.3 999.0
20:30 9.6 74 5.2 10.3 24.5 W 0.3 998.9
20:40 9.5 74 5.1 12.5 24.5 NW 0.3 999.0
20:50 9.4 74 5.0 11.4 24.5 WNW 0.3 999.1
21:00 9.3 74 4.9 10.2 19.4 WNW 0.3 999.3
21:10 9.3 74 4.9 9.9 20.9 W 0.3 999.2
21:20 9.2 74 4.8 10.3 19.4 WNW 0.3 999.3
21:30 9.1 74 4.7 9.6 23.4 W 0.3 999.5
21:40 9.0 74 4.6 10.4 22.0 WNW 0.3 999.5
21:50 9.0 74 4.6 13.0 23.4 W 0.3 999.6
22:00 9.1 75 4.9 9.5 23.4 WNW 0.3 999.7
22:10 9.1 75 4.9 7.5 17.3 WNW 0.3 999.8
22:20 9.1 75 4.9 9.0 19.4 WNW 0.3 999.9
22:30 9.1 75 4.9 10.6 23.4 W 0.3 999.9
22:40 9.1 75 4.9 10.6 25.6 W 0.3 999.9
22:50 9.2 75 5.0 10.1 20.9 WNW 0.3 1000.1
23:00 9.2 75 5.0 8.3 20.9 WNW 0.3 1000.1
23:10 9.2 75 5.0 10.0 23.4 W 0.3 1000.2
23:20 9.2 75 5.0 14.9 30.6 NW 0.3 1000.2
23:30 9.3 75 5.1 13.4 24.5 NW 0.3 1000.3
23:40 9.4 75 5.2 10.5 20.9 WNW 0.3 1000.5
23:50 9.3 75 5.1 8.5 24.5 SW 0.3 1000.4